Time;durP1;ratioP1;P1;durP2;ratioP2;P2;SDS_P1;SDS_P2;PMS_P1;PMS_P2;Temp;Humidity;BMP_temperature;BMP_pressure;BME280_temperature;BME280_humidity;BME280_pressure;Samples;Min_cycle;Max_cycle;Signal;HPM_P1;HPM_P2
2022/01/10 00:02:02;;;;;;;;;36.00;26.75;;;;;6.90;89.99;100839.56;5056971;28;45870;-71
2022/01/10 00:04:27;;;;;;;;;35.25;30.75;;;;;6.87;90.14;100839.63;5064285;28;45420;-71
2022/01/10 00:06:53;;;;;;;;;31.50;28.50;;;;;6.82;90.03;100843.28;5062971;28;45452;-71
2022/01/10 00:09:18;;;;;;;;;37.50;33.75;;;;;6.79;90.03;100842.47;5062810;28;45420;-71
2022/01/10 00:11:44;;;;;;;;;33.50;27.75;;;;;6.76;90.26;100857.34;5063819;28;46033;-71
2022/01/10 00:14:09;;;;;;;;;39.75;35.25;;;;;6.68;90.52;100854.06;5046947;28;45456;-71
2022/01/10 00:16:34;;;;;;;;;38.25;32.00;;;;;6.60;90.36;100837.75;5055854;28;45399;-71
2022/01/10 00:19:00;;;;;;;;;46.00;39.00;;;;;6.67;90.58;100847.97;5043982;28;45719;-71
2022/01/10 00:21:25;;;;;;;;;41.50;33.75;;;;;6.64;90.72;100855.06;5054066;28;45930;-71
2022/01/10 00:23:50;;;;;;;;;34.50;31.00;;;;;6.63;90.53;100855.91;5053650;28;45320;-71
2022/01/10 00:26:16;;;;;;;;;40.00;32.75;;;;;6.69;90.72;100867.09;5067216;28;45403;-71
2022/01/10 00:28:41;;;;;;;;;35.75;29.50;;;;;6.64;90.64;100868.09;5062355;28;45509;-71
2022/01/10 00:31:07;;;;;;;;;42.25;37.50;;;;;6.71;90.47;100869.66;5055884;28;45441;-71
2022/01/10 00:33:32;;;;;;;;;41.75;33.75;;;;;6.75;90.58;100874.78;5053352;28;45554;-71
2022/01/10 00:35:57;;;;;;;;;41.50;33.25;;;;;6.77;90.60;100887.78;5056265;28;45717;-71
2022/01/10 00:38:23;;;;;;;;;33.75;30.75;;;;;6.80;90.33;100885.97;5053243;28;45420;-72
2022/01/10 00:40:50;;;;;;;;;48.00;35.25;;;;;6.77;90.82;100885.19;5068791;28;46117;-71
2022/01/10 00:43:19;;;;;;;;;42.25;34.25;;;;;6.83;90.20;100892.84;5055278;28;45471;-71
2022/01/10 00:45:44;;;;;;;;;43.75;35.50;;;;;6.85;90.67;100888.47;5061411;28;45484;-71
2022/01/10 00:48:10;;;;;;;;;40.50;35.00;;;;;6.87;90.42;100893.66;5060680;28;45371;-71
2022/01/10 00:50:35;;;;;;;;;40.00;33.75;;;;;6.87;90.48;100896.25;5055750;28;45509;-71
2022/01/10 00:53:01;;;;;;;;;38.00;32.00;;;;;6.81;89.90;100892.03;5053392;28;45450;-71
2022/01/10 00:55:28;;;;;;;;;50.25;38.75;;;;;6.78;90.12;100899.94;5055287;28;45379;-71
2022/01/10 00:57:54;;;;;;;;;50.00;41.75;;;;;6.62;90.05;100889.03;5054247;28;45370;-71
2022/01/10 01:00:20;;;;;;;;;52.75;39.25;;;;;6.66;90.27;100902.88;5054858;28;46090;-71
2022/01/10 01:02:45;;;;;;;;;44.50;38.75;;;;;6.60;90.49;100900.41;5058886;28;45363;-71
2022/01/10 01:05:14;;;;;;;;;55.50;43.00;;;;;6.57;90.40;100917.00;5055982;28;45345;-69
2022/01/10 01:07:39;;;;;;;;;59.25;42.50;;;;;6.52;90.34;100922.34;5055755;28;45482;-71
2022/01/10 01:13:00;;;;;;;;;57.50;43.00;;;;;6.43;90.67;100916.47;5051685;28;45351;-71
2022/01/10 01:15:31;;;;;;;;;42.25;35.50;;;;;6.39;90.66;100926.13;5054494;28;45693;-71
2022/01/10 01:25:48;;;;;;;;;47.25;39.50;;;;;6.28;91.08;100949.00;5053653;28;45350;-72
2022/01/10 01:28:13;;;;;;;;;46.25;40.50;;;;;6.28;90.92;100952.47;5064383;28;45516;-71
2022/01/10 01:30:38;;;;;;;;;54.50;42.00;;;;;6.27;91.11;100953.38;5055735;28;46005;-71
2022/01/10 01:33:04;;;;;;;;;40.50;34.25;;;;;6.30;91.11;100962.84;5053765;28;45486;-71
2022/01/10 01:35:29;;;;;;;;;40.50;35.50;;;;;6.34;91.05;100967.13;5053768;28;45489;-71
2022/01/10 01:37:55;;;;;;;;;42.00;38.50;;;;;6.38;91.41;100971.41;5068085;28;45307;-71
2022/01/10 01:40:22;;;;;;;;;49.50;37.50;;;;;6.41;91.26;100968.69;5055890;28;45453;-71
2022/01/10 01:42:47;;;;;;;;;43.00;39.25;;;;;6.43;91.15;100971.28;5052136;28;45848;-71
2022/01/10 01:45:15;;;;;;;;;50.25;35.00;;;;;6.41;90.97;100971.31;5060584;28;45884;-71
2022/01/10 01:47:43;;;;;;;;;39.50;36.50;;;;;6.38;90.91;100971.41;5052163;28;45509;-71
2022/01/10 01:50:09;;;;;;;;;42.00;36.00;;;;;6.41;90.80;100993.94;5037087;28;47014;-71
2022/01/10 01:52:35;;;;;;;;;42.75;38.00;;;;;6.42;90.91;100999.16;5055962;28;45466;-71
2022/01/10 01:55:01;;;;;;;;;39.75;35.50;;;;;6.44;91.03;101005.19;5061737;28;45410;-71
2022/01/10 01:57:27;;;;;;;;;49.00;39.50;;;;;6.46;91.00;101015.59;5060633;28;45551;-71
2022/01/10 01:59:53;;;;;;;;;43.75;39.25;;;;;6.45;90.57;101006.06;5054463;28;45950;-71
2022/01/10 02:02:19;;;;;;;;;42.50;37.25;;;;;6.48;90.73;101006.84;5057381;27;45521;-71
2022/01/10 02:04:44;;;;;;;;;45.00;38.25;;;;;6.48;91.08;101009.47;5070936;28;45565;-71
2022/01/10 02:07:10;;;;;;;;;40.75;34.50;;;;;6.49;90.96;101008.56;5065674;28;45490;-71
2022/01/10 02:09:35;;;;;;;;;40.50;36.00;;;;;6.47;90.88;101002.53;5059898;28;45501;-71
2022/01/10 02:12:01;;;;;;;;;39.00;38.75;;;;;6.44;90.80;101012.16;5064277;28;45765;-71
2022/01/10 02:14:26;;;;;;;;;41.25;36.25;;;;;6.39;90.33;101008.81;5070878;28;45453;-71
2022/01/10 02:16:55;;;;;;;;;40.50;32.75;;;;;6.37;90.53;101011.44;5040717;28;45653;-71
2022/01/10 02:19:21;;;;;;;;;36.75;31.25;;;;;6.30;90.93;101012.44;5058912;28;45970;-71
2022/01/10 02:21:47;;;;;;;;;37.75;32.75;;;;;6.24;90.48;101005.59;5055799;28;45546;-71
2022/01/10 02:24:12;;;;;;;;;45.75;37.75;;;;;6.28;90.68;101015.09;5056257;28;45510;-71
2022/01/10 02:26:39;;;;;;;;;40.50;34.25;;;;;6.23;90.90;101016.09;5053716;28;45373;-71
2022/01/10 02:29:05;;;;;;;;;45.75;40.00;;;;;6.19;90.77;101020.50;5051870;28;47159;-71
2022/01/10 02:31:35;;;;;;;;;37.25;35.00;;;;;6.17;90.95;101018.81;5057479;28;45933;-71
2022/01/10 02:34:01;;;;;;;;;46.50;34.00;;;;;6.10;90.91;101018.06;5060294;28;45374;-71
2022/01/10 02:36:27;;;;;;;;;42.00;38.25;;;;;6.05;91.30;101027.75;5057465;28;45528;-71
2022/01/10 02:38:58;;;;;;;;;45.75;39.25;;;;;5.97;90.94;101017.47;5062856;27;46072;-71
2022/01/10 02:41:27;;;;;;;;;50.75;38.00;;;;;5.92;90.91;101027.13;5054893;28;45522;-71
2022/01/10 02:43:54;;;;;;;;;48.00;40.50;;;;;5.80;91.28;101023.88;5057024;28;45320;-71
2022/01/10 02:46:19;;;;;;;;;50.00;43.00;;;;;5.75;91.19;101018.75;5056760;28;45490;-71
2022/01/10 02:48:45;;;;;;;;;45.75;39.75;;;;;5.73;91.24;101026.56;5042319;28;47425;-71
2022/01/10 02:51:11;;;;;;;;;49.50;37.75;;;;;5.72;91.25;101035.28;5056132;28;45494;-71
2022/01/10 02:53:36;;;;;;;;;47.25;40.75;;;;;5.68;91.29;101037.97;5055298;28;53341;-70
2022/01/10 02:56:02;;;;;;;;;49.75;38.75;;;;;5.58;90.93;101036.41;5068643;28;45492;-70
2022/01/10 02:58:28;;;;;;;;;53.25;44.00;;;;;5.49;91.22;101040.91;5056003;28;46206;-70
2022/01/10 03:00:53;;;;;;;;;52.00;43.00;;;;;5.54;91.60;101063.44;5057500;28;51038;-70
2022/01/10 03:03:18;;;;;;;;;56.25;43.25;;;;;5.50;91.68;101060.03;5056364;28;45577;-70
2022/01/10 03:05:44;;;;;;;;;54.75;44.75;;;;;5.47;91.73;101062.66;5061645;28;46419;-70
2022/01/10 03:08:09;;;;;;;;;52.00;41.33;;;;;5.44;91.74;101062.75;5054666;28;51302;-70
2022/01/10 03:10:34;;;;;;;;;51.00;41.25;;;;;5.40;91.18;101076.69;5054109;28;45643;-70
2022/01/10 03:13:01;;;;;;;;;61.25;47.00;;;;;5.34;91.27;101079.41;5058389;28;45355;-70
2022/01/10 03:15:28;;;;;;;;;53.25;44.00;;;;;5.23;91.17;101072.63;5055649;28;45455;-70
2022/01/10 03:17:53;;;;;;;;;57.75;46.50;;;;;5.28;91.59;101090.78;5052894;28;47479;-71
2022/01/10 03:20:19;;;;;;;;;60.25;46.50;;;;;5.26;91.87;101091.69;5058132;28;45427;-71
2022/01/10 03:22:44;;;;;;;;;55.25;44.00;;;;;5.17;91.55;101085.75;5055461;28;45374;-71
2022/01/10 03:25:10;;;;;;;;;52.50;44.00;;;;;5.11;91.27;101087.56;5058948;28;45466;-70
2022/01/10 03:27:35;;;;;;;;;53.50;44.00;;;;;5.12;91.68;101092.75;5062478;28;46449;-70
2022/01/10 03:30:02;;;;;;;;;63.25;46.50;;;;;5.12;91.29;101113.59;5063445;28;45496;-70
2022/01/10 03:32:27;;;;;;;;;59.00;48.75;;;;;5.10;91.58;101109.28;5050780;28;45399;-70
2022/01/10 03:34:53;;;;;;;;;66.33;51.33;;;;;5.08;91.36;101100.66;5055269;28;45457;-70
2022/01/10 03:37:18;;;;;;;;;59.00;44.75;;;;;5.03;91.65;101099.84;5068535;28;54340;-70
2022/01/10 03:39:43;;;;;;;;;54.75;44.00;;;;;5.02;91.79;101095.53;5063577;28;45592;-70
2022/01/10 03:42:09;;;;;;;;;66.75;50.75;;;;;5.06;91.89;101100.66;5062994;28;45476;-70
2022/01/10 03:44:34;;;;;;;;;64.75;49.50;;;;;5.06;91.71;101111.06;5067020;28;45409;-70
2022/01/10 03:47:01;;;;;;;;;67.33;52.00;;;;;5.03;91.68;101120.69;5053835;28;58243;-70
2022/01/10 03:49:26;;;;;;;;;61.50;49.25;;;;;5.01;91.78;101119.84;5060667;28;45763;-70
2022/01/10 03:51:52;;;;;;;;;59.33;46.67;;;;;4.99;91.80;101122.47;5055580;28;45372;-70
2022/01/10 03:54:17;;;;;;;;;69.00;51.75;;;;;4.97;91.56;101119.88;5054914;28;45277;-70
2022/01/10 03:56:43;;;;;;;;;62.50;50.00;;;;;4.94;92.14;101117.31;5060988;28;45477;-70
2022/01/10 03:59:09;;;;;;;;;61.50;48.50;;;;;4.94;91.36;101132.09;5054939;28;45398;-70
2022/01/10 04:01:38;;;;;;;;;56.25;48.00;;;;;4.86;91.48;101131.34;5058092;28;46481;-70
2022/01/10 04:04:03;;;;;;;;;64.00;50.75;;;;;4.84;91.72;101144.34;5056798;28;45602;-70
2022/01/10 04:06:29;;;;;;;;;65.00;45.00;;;;;4.82;91.50;101150.47;5051711;28;45334;-70
2022/01/10 04:08:54;;;;;;;;;60.75;47.75;;;;;4.77;91.59;101149.69;5044410;28;45483;-70
2022/01/10 04:11:19;;;;;;;;;62.33;47.67;;;;;4.74;91.62;101147.97;5054683;28;45539;-70
2022/01/10 04:13:45;;;;;;;;;56.75;45.50;;;;;4.69;91.72;101139.34;5059374;28;45477;-70
2022/01/10 04:16:10;;;;;;;;;51.75;43.50;;;;;4.67;91.67;101148.94;5064177;28;45433;-70
2022/01/10 04:18:35;;;;;;;;;55.67;45.00;;;;;4.62;91.63;101158.53;5056633;28;45594;-70
2022/01/10 04:21:01;;;;;;;;;55.50;46.50;;;;;4.50;91.57;101146.53;5056914;28;45586;-70
2022/01/10 04:23:26;;;;;;;;;62.25;47.00;;;;;4.55;91.92;101155.16;5051849;28;45481;-70
2022/01/10 04:25:52;;;;;;;;;68.00;50.75;;;;;4.55;91.91;101156.88;5053433;28;46001;-70
2022/01/10 04:28:17;;;;;;;;;52.00;43.67;;;;;4.53;91.88;101158.63;5041895;28;45993;-74
2022/01/10 04:30:43;;;;;;;;;66.50;49.50;;;;;4.53;91.66;101176.84;5057304;28;45637;-70
2022/01/10 04:33:10;;;;;;;;;60.50;46.75;;;;;4.45;91.80;101170.00;5055147;28;45728;-70
2022/01/10 04:35:35;;;;;;;;;65.00;48.50;;;;;4.46;91.42;101178.66;5060596;28;45566;-71
2022/01/10 04:38:01;;;;;;;;;62.00;46.25;;;;;4.42;91.58;101174.34;5053763;28;45278;-70
2022/01/10 04:40:27;;;;;;;;;57.75;46.75;;;;;4.40;91.66;101176.13;5047561;28;45411;-70
2022/01/10 04:42:53;;;;;;;;;58.50;46.25;;;;;4.37;91.82;101181.34;5059500;28;45574;-70
2022/01/10 04:45:18;;;;;;;;;57.00;45.50;;;;;4.37;91.35;101197.81;5057145;28;47115;-70
2022/01/10 04:47:43;;;;;;;;;64.33;46.67;;;;;4.32;91.57;101206.56;5052470;28;48312;-70
2022/01/10 04:52:37;;;;;;;;;61.75;48.50;;;;;4.29;91.36;101214.41;5054314;28;45465;-70
2022/01/10 04:55:04;;;;;;;;;65.75;50.00;;;;;4.27;91.71;101227.41;5050958;28;45758;-70
2022/01/10 04:57:29;;;;;;;;;55.50;46.50;;;;;4.18;91.60;101211.91;5047949;28;45580;-70
2022/01/10 04:59:55;;;;;;;;;59.75;46.50;;;;;4.23;91.84;101227.44;5055052;28;45559;-70
2022/01/10 05:02:20;;;;;;;;;54.50;46.00;;;;;4.22;92.11;101231.78;5054553;28;45473;-70
2022/01/10 05:04:45;;;;;;;;;50.67;45.33;;;;;4.21;91.83;101231.81;5065657;28;46272;-70
2022/01/10 05:07:11;;;;;;;;;57.75;46.75;;;;;4.18;91.67;101230.97;5056320;28;45347;-70
2022/01/10 05:09:36;;;;;;;;;60.25;45.25;;;;;4.10;91.63;101230.16;5056600;28;45553;-71
2022/01/10 05:12:02;;;;;;;;;55.00;47.67;;;;;4.15;91.65;101240.53;5034518;28;45399;-70
2022/01/10 05:14:27;;;;;;;;;61.50;44.25;;;;;4.10;91.16;101243.16;5052734;28;45538;-70
2022/01/10 05:16:53;;;;;;;;;56.00;45.75;;;;;4.00;91.39;101238.06;5052365;28;45391;-70
2022/01/10 05:19:19;;;;;;;;;58.75;47.75;;;;;4.01;91.54;101243.25;5058545;28;45384;-70
2022/01/10 05:21:45;;;;;;;;;60.25;45.75;;;;;4.03;91.61;101251.06;5052754;28;45548;-70
2022/01/10 05:24:10;;;;;;;;;55.75;46.75;;;;;4.02;91.35;101249.31;5056238;28;45505;-70
2022/01/10 05:26:36;;;;;;;;;65.25;50.00;;;;;4.00;91.39;101256.25;5052299;28;45480;-70
2022/01/10 05:29:03;;;;;;;;;65.25;49.50;;;;;3.99;91.40;101260.59;5052190;28;45607;-70
2022/01/10 05:31:29;;;;;;;;;62.25;47.50;;;;;3.97;91.40;101266.69;5062947;28;46091;-70
2022/01/10 05:33:55;;;;;;;;;56.50;46.75;;;;;3.94;91.52;101277.97;5038580;28;47193;-70
2022/01/10 05:36:22;;;;;;;;;60.75;45.00;;;;;3.96;91.85;101275.34;5057596;28;46028;-70
2022/01/10 05:38:47;;;;;;;;;66.75;50.50;;;;;3.93;91.58;101274.50;5053870;28;45473;-70
2022/01/10 05:41:13;;;;;;;;;61.75;48.75;;;;;3.93;91.53;101281.47;5056166;28;45454;-70
2022/01/10 05:43:38;;;;;;;;;69.00;55.25;;;;;3.90;91.61;101284.94;5068568;28;45324;-70
2022/01/10 05:46:08;;;;;;;;;81.00;62.50;;;;;3.89;91.95;101295.34;5054361;28;45512;-70
2022/01/10 05:48:34;;;;;;;;;70.25;55.00;;;;;3.83;92.04;101298.00;5050503;28;45777;-70
2022/01/10 05:51:00;;;;;;;;;72.00;51.75;;;;;3.84;92.01;101308.38;5060330;28;45641;-70
2022/01/10 05:53:25;;;;;;;;;57.50;45.25;;;;;3.79;91.77;101311.88;5057195;28;45390;-70
2022/01/10 05:55:51;;;;;;;;;55.75;42.50;;;;;3.79;92.06;101322.28;5060405;28;45386;-70
2022/01/10 05:58:17;;;;;;;;;58.00;45.50;;;;;3.78;92.42;101329.22;5062657;28;45500;-70
2022/01/10 06:00:42;;;;;;;;;45.75;41.25;;;;;3.80;92.58;101337.00;5059459;28;45732;-70
2022/01/10 06:03:08;;;;;;;;;51.50;44.00;;;;;3.84;91.93;101331.78;5060646;28;46185;-70
2022/01/10 06:05:34;;;;;;;;;57.75;42.50;;;;;3.83;91.89;101345.66;5054439;28;45486;-70
2022/01/10 06:08:03;;;;;;;;;59.75;45.00;;;;;3.80;92.28;101337.84;5055186;28;45412;-70
2022/01/10 06:10:29;;;;;;;;;54.25;43.50;;;;;3.96;92.48;101349.03;5051901;28;45577;-70
2022/01/10 06:12:56;;;;;;;;;46.00;40.50;;;;;4.05;92.65;101354.19;5062131;28;46277;-70
2022/01/10 06:15:22;;;;;;;;;40.25;39.50;;;;;4.10;92.13;101357.63;5060936;28;45957;-71
2022/01/10 06:17:48;;;;;;;;;53.25;41.75;;;;;4.16;92.30;101356.72;5053013;28;45443;-71
2022/01/10 06:20:15;;;;;;;;;45.50;40.50;;;;;4.21;92.42;101364.50;5038806;28;45490;-71
2022/01/10 06:22:40;;;;;;;;;52.75;42.00;;;;;4.34;92.38;101387.81;5057117;28;46101;-70
2022/01/10 06:25:08;;;;;;;;;47.75;39.75;;;;;4.42;92.35;101392.97;5065482;28;45609;-70
2022/01/10 06:27:33;;;;;;;;;50.25;37.75;;;;;4.43;92.03;101385.13;5058757;27;45295;-70
2022/01/10 06:29:58;;;;;;;;;47.75;35.00;;;;;4.56;92.24;101398.94;5058062;28;45738;-71
2022/01/10 06:32:24;;;;;;;;;33.25;28.75;;;;;4.59;91.84;101398.91;5064193;28;46610;-70
2022/01/10 06:34:49;;;;;;;;;40.25;30.50;;;;;4.68;91.67;101406.63;5061670;28;49927;-71
2022/01/10 06:37:15;;;;;;;;;40.25;35.25;;;;;4.75;91.53;101417.00;5057434;28;45410;-70
2022/01/10 06:39:40;;;;;;;;;42.25;36.50;;;;;4.71;91.54;101408.38;5045241;28;45877;-70
2022/01/10 06:42:06;;;;;;;;;34.50;32.00;;;;;4.80;91.50;101425.63;5061363;28;45373;-70
2022/01/10 06:44:31;;;;;;;;;31.25;24.25;;;;;4.81;91.67;101430.84;5066320;28;45686;-71
2022/01/10 06:46:57;;;;;;;;;29.50;23.00;;;;;4.79;91.47;101434.34;5069205;28;45932;-71
2022/01/10 06:49:23;;;;;;;;;25.25;22.75;;;;;4.77;91.34;101428.28;5056020;28;45615;-70
2022/01/10 06:51:49;;;;;;;;;31.25;23.75;;;;;4.74;91.29;101436.97;5054131;28;46374;-71
2022/01/10 06:54:15;;;;;;;;;29.00;23.75;;;;;4.72;91.05;101452.63;5041608;28;45892;-70
2022/01/10 06:56:41;;;;;;;;;32.25;21.00;;;;;4.61;91.00;101448.38;5057833;27;46146;-70
2022/01/10 06:59:06;;;;;;;;;26.50;21.75;;;;;4.56;91.25;101456.19;5057153;28;45366;-70
2022/01/10 07:01:32;;;;;;;;;22.75;20.25;;;;;4.54;91.58;101475.28;5061293;28;45406;-72
2022/01/10 07:03:57;;;;;;;;;29.25;21.00;;;;;4.40;91.53;101478.00;5054637;28;45414;-70
2022/01/10 07:06:23;;;;;;;;;21.75;19.00;;;;;4.38;91.61;101493.59;5061021;28;45514;-70
2022/01/10 07:08:48;;;;;;;;;21.25;18.00;;;;;4.31;91.91;101480.66;5065746;28;45558;-70
2022/01/10 07:11:14;;;;;;;;;27.00;20.75;;;;;4.33;92.15;101508.41;5061978;28;45394;-70
2022/01/10 07:13:39;;;;;;;;;24.00;15.50;;;;;4.32;91.87;101514.44;5055910;28;45377;-70
2022/01/10 07:16:05;;;;;;;;;21.75;18.25;;;;;4.32;91.59;101527.47;5055845;28;45561;-70
2022/01/10 07:18:30;;;;;;;;;32.00;21.50;;;;;4.30;91.74;101536.16;5053068;28;45314;-70
2022/01/10 07:20:56;;;;;;;;;21.50;17.50;;;;;4.27;91.81;101530.97;5052642;28;46031;-70
2022/01/10 07:23:23;;;;;;;;;27.75;16.00;;;;;4.26;92.20;101540.50;5060135;28;45562;-70
2022/01/10 07:25:48;;;;;;;;;18.00;14.00;;;;;4.22;92.11;101549.19;5065984;28;45481;-70
2022/01/10 07:28:13;;;;;;;;;15.25;15.00;;;;;4.19;92.00;101559.63;5059670;28;45322;-70
2022/01/10 07:30:39;;;;;;;;;21.25;16.75;;;;;4.10;91.75;101555.31;5060192;28;48190;-70
2022/01/10 07:33:04;;;;;;;;;14.67;11.00;;;;;4.18;91.85;101573.50;5053372;28;59248;-70
2022/01/10 07:35:29;;;;;;;;;15.00;11.00;;;;;4.12;91.90;101566.59;5052510;28;45481;-70
2022/01/10 07:37:55;;;;;;;;;16.50;13.00;;;;;4.15;91.82;101581.31;5061674;28;45466;-70
2022/01/10 07:40:20;;;;;;;;;15.75;11.00;;;;;4.13;91.97;101593.47;5062091;28;46246;-69
2022/01/10 07:42:46;;;;;;;;;12.00;10.75;;;;;4.10;91.70;101593.47;5056394;28;45523;-69
2022/01/10 07:45:11;;;;;;;;;11.75;11.50;;;;;4.13;92.06;101602.13;5055638;28;45427;-70
2022/01/10 07:47:37;;;;;;;;;17.00;11.25;;;;;4.14;92.17;101603.00;5054978;28;45304;-69
2022/01/10 07:50:04;;;;;;;;;20.00;13.50;;;;;4.17;92.20;101619.44;5061273;28;45961;-70
2022/01/10 07:52:30;;;;;;;;;17.50;10.25;;;;;4.22;92.25;101616.84;5054133;28;45355;-70
2022/01/10 07:54:55;;;;;;;;;21.00;13.00;;;;;4.27;92.41;101625.50;5053168;28;45386;-70
2022/01/10 07:57:21;;;;;;;;;15.00;12.50;;;;;4.28;93.09;101622.03;5053529;28;45585;-70
2022/01/10 07:59:46;;;;;;;;;15.50;12.00;;;;;4.33;94.11;101627.19;5059351;28;46499;-70
2022/01/10 08:02:11;;;;;;;;;21.00;14.75;;;;;4.34;93.95;101631.56;5056165;28;45490;-70
2022/01/10 08:04:37;;;;;;;;;20.75;12.00;;;;;4.37;94.32;101636.75;5058164;28;45529;-69
2022/01/10 08:07:04;;;;;;;;;18.00;13.75;;;;;4.38;95.05;101647.13;5052901;28;45483;-70
2022/01/10 08:09:29;;;;;;;;;20.75;13.00;;;;;4.38;94.69;101641.06;5054870;28;47397;-70
2022/01/10 08:11:59;;;;;;;;;13.25;10.50;;;;;4.48;94.42;101654.94;5067605;28;48338;-69
2022/01/10 08:14:25;;;;;;;;;20.25;15.75;;;;;4.50;94.33;101648.88;5061208;28;45541;-69
2022/01/10 08:16:50;;;;;;;;;17.75;12.00;;;;;4.56;95.49;101663.59;5051766;28;45586;-69
2022/01/10 08:19:16;;;;;;;;;16.33;14.67;;;;;4.59;95.08;101669.63;5052158;28;48138;-69
2022/01/10 08:21:41;;;;;;;;;12.75;10.00;;;;;4.58;94.05;101670.50;5051496;28;45737;-70
2022/01/10 08:24:06;;;;;;;;;22.33;13.67;;;;;4.53;94.02;101663.59;5049677;28;52064;-70
2022/01/10 08:26:32;;;;;;;;;17.50;14.25;;;;;4.62;93.86;101671.38;5059879;28;45466;-70
2022/01/10 08:28:57;;;;;;;;;18.00;12.67;;;;;4.60;93.07;101668.78;5052779;28;56013;-70
2022/01/10 08:31:23;;;;;;;;;15.00;11.00;;;;;4.66;93.43;101684.38;5059092;28;45642;-70
2022/01/10 08:33:48;;;;;;;;;15.25;11.00;;;;;4.70;93.18;101691.31;5041906;28;45500;-70
2022/01/10 08:36:14;;;;;;;;;21.50;11.75;;;;;4.69;93.03;101683.50;5046457;28;45433;-70
2022/01/10 08:38:40;;;;;;;;;17.75;14.00;;;;;4.75;93.17;101704.31;5062142;28;45938;-70
2022/01/10 08:41:05;;;;;;;;;18.50;14.50;;;;;4.74;93.80;101702.56;5038858;28;45407;-70
2022/01/10 08:43:30;;;;;;;;;18.75;12.25;;;;;4.77;92.87;101707.78;5043403;28;45313;-70
2022/01/10 08:45:56;;;;;;;;;17.50;12.00;;;;;4.79;94.16;101721.66;5052452;28;45533;-70
2022/01/10 08:48:21;;;;;;;;;155.67;126.33;;;;;4.83;93.18;101715.56;5050913;28;53633;-69
2022/01/10 08:50:46;;;;;;;;;11.25;10.50;;;;;4.88;92.33;101723.38;5052398;28;50098;-70
2022/01/10 08:53:12;;;;;;;;;6.75;6.50;;;;;4.88;92.32;101707.72;5053295;28;45373;-69
2022/01/10 08:55:37;;;;;;;;;16.50;8.25;;;;;4.93;92.15;101717.25;5055008;28;45427;-70
2022/01/10 08:58:03;;;;;;;;;14.75;11.00;;;;;4.98;92.02;101719.84;5056693;28;45993;-70
2022/01/10 09:00:28;;;;;;;;;14.25;10.25;;;;;5.03;92.13;101723.31;5052965;28;45719;-70
2022/01/10 09:02:54;;;;;;;;;15.25;11.75;;;;;5.10;92.31;101732.81;5052890;28;45467;-70
2022/01/10 09:05:20;;;;;;;;;16.75;9.00;;;;;5.14;91.89;101736.28;5036235;28;45480;-70
2022/01/10 09:07:46;;;;;;;;;9.50;8.75;;;;;5.22;91.78;101752.75;5053437;28;45989;-70
2022/01/10 09:10:11;;;;;;;;;9.75;6.75;;;;;5.23;91.65;101746.66;5053493;28;45596;-70
2022/01/10 09:12:38;;;;;;;;;14.50;11.00;;;;;5.27;91.38;101750.97;5059170;28;45721;-69
2022/01/10 09:15:08;;;;;;;;;11.50;8.75;;;;;5.31;91.62;101757.03;5061194;28;45431;-70
2022/01/10 09:17:33;;;;;;;;;10.25;9.00;;;;;5.28;91.32;101744.03;5052737;28;47426;-69
2022/01/10 09:19:59;;;;;;;;;18.25;9.00;;;;;5.31;91.00;101755.31;5052611;28;45406;-69
2022/01/10 09:22:24;;;;;;;;;11.50;11.00;;;;;5.27;91.26;101742.28;5054325;28;45415;-69
2022/01/10 09:24:50;;;;;;;;;17.50;12.25;;;;;5.38;90.82;101762.22;5052744;28;45647;-69
2022/01/10 09:27:16;;;;;;;;;11.50;8.75;;;;;5.45;91.33;101766.53;5058802;28;45532;-69
2022/01/10 09:29:42;;;;;;;;;15.00;13.25;;;;;5.47;91.25;101764.78;5059456;28;45456;-70
2022/01/10 09:32:09;;;;;;;;;15.75;11.25;;;;;5.58;90.99;101779.50;5052273;28;45395;-69
2022/01/10 09:34:34;;;;;;;;;16.50;11.50;;;;;5.68;91.40;101775.94;5052836;28;45466;-69
2022/01/10 09:37:00;;;;;;;;;19.25;14.00;;;;;5.71;90.43;101783.78;5045525;28;46015;-69
2022/01/10 09:39:27;;;;;;;;;17.75;13.00;;;;;5.81;90.49;101801.09;5043789;28;45312;-69
2022/01/10 09:41:53;;;;;;;;;13.50;12.00;;;;;5.72;90.08;101783.75;5040559;28;45437;-69
2022/01/10 09:44:18;;;;;;;;;18.00;16.00;;;;;5.85;89.86;101808.03;5051092;28;45629;-69
2022/01/10 09:46:48;;;;;;;;;15.00;9.75;;;;;5.88;89.55;101818.44;5040927;28;45685;-70
2022/01/10 09:49:15;;;;;;;;;18.75;12.75;;;;;5.91;89.89;101815.84;5049457;28;46000;-69
2022/01/10 09:51:40;;;;;;;;;17.00;13.25;;;;;5.94;89.85;101812.34;5041251;28;45482;-70
2022/01/10 09:54:06;;;;;;;;;25.75;15.75;;;;;6.01;89.40;101817.53;5040572;28;45372;-69
2022/01/10 09:56:32;;;;;;;;;17.25;12.50;;;;;6.06;89.67;101824.47;5046497;28;51244;-70
2022/01/10 09:58:58;;;;;;;;;22.00;20.75;;;;;6.06;89.72;101830.56;5035715;28;46024;-69
2022/01/10 10:01:25;;;;;;;;;47.75;40.50;;;;;6.10;89.37;101837.44;5038109;28;45504;-70
2022/01/10 10:03:51;;;;;;;;;32.25;26.50;;;;;6.14;89.71;101843.53;5038571;28;45408;-70
2022/01/10 10:06:18;;;;;;;;;19.25;16.00;;;;;6.21;89.52;101846.09;5038544;28;46064;-69
2022/01/10 10:08:44;;;;;;;;;24.00;16.00;;;;;6.23;89.04;101848.69;5039131;28;45471;-69
2022/01/10 10:11:10;;;;;;;;;24.00;19.75;;;;;6.20;89.04;101853.91;5034797;28;45511;-69
2022/01/10 10:13:44;;;;;;;;;23.00;15.25;;;;;6.16;89.15;101840.03;5053349;28;45383;-69
2022/01/10 10:16:13;;;;;;;;;20.25;13.00;;;;;6.24;89.06;101848.66;5053009;28;46063;-69
2022/01/10 10:18:40;;;;;;;;;20.75;16.50;;;;;6.28;88.74;101850.38;5051420;28;45549;-69
2022/01/10 10:21:11;;;;;;;;;19.25;17.75;;;;;6.30;89.12;101857.34;5051766;28;45412;-69
2022/01/10 10:23:40;;;;;;;;;29.25;22.75;;;;;6.28;88.81;101860.81;5050839;28;45482;-70
2022/01/10 10:26:06;;;;;;;;;107.50;85.75;;;;;6.25;88.21;101867.81;5054452;28;46014;-70
2022/01/10 10:28:37;;;;;;;;;24.25;22.00;;;;;6.26;88.65;101870.44;5056908;28;45417;-70
2022/01/10 10:31:02;;;;;;;;;27.00;15.25;;;;;6.29;88.51;101872.13;5054266;28;45400;-68
2022/01/10 10:33:28;;;;;;;;;21.00;12.00;;;;;6.31;88.69;101875.59;5058041;28;45431;-69
2022/01/10 10:35:59;;;;;;;;;20.50;16.00;;;;;6.35;88.47;101873.84;5036561;28;46144;-69
2022/01/10 10:38:26;;;;;;;;;22.50;18.00;;;;;6.33;88.20;101860.81;5056732;28;45481;-69
2022/01/10 10:40:51;;;;;;;;;17.50;16.00;;;;;6.34;88.03;101872.09;5050348;28;45404;-69
2022/01/10 10:43:16;;;;;;;;;23.50;16.25;;;;;6.27;88.44;101866.06;5052748;28;45566;-69
2022/01/10 10:45:46;;;;;;;;;14.25;12.00;;;;;6.33;88.12;101879.06;5056878;28;45505;-69
2022/01/10 10:48:11;;;;;;;;;23.75;19.75;;;;;6.28;88.17;101888.69;5056239;28;45921;-69
2022/01/10 10:50:45;;;;;;;;;26.50;15.25;;;;;6.24;88.81;101895.66;5054200;28;45659;-69
2022/01/10 10:53:13;;;;;;;;;27.00;18.75;;;;;6.20;88.78;101880.88;5054163;28;45656;-69
2022/01/10 10:55:41;;;;;;;;;27.75;19.75;;;;;6.25;88.68;101897.38;5063427;28;46414;-69
2022/01/10 10:58:11;;;;;;;;;21.50;12.75;;;;;6.24;88.80;101894.78;5059964;28;45467;-69
2022/01/10 11:00:37;;;;;;;;;22.75;13.25;;;;;6.30;88.86;101901.72;5054966;28;45898;-69
2022/01/10 11:03:04;;;;;;;;;23.25;15.75;;;;;6.31;88.63;101890.38;5057614;28;45871;-69
2022/01/10 11:05:29;;;;;;;;;26.50;16.00;;;;;6.26;88.78;101879.97;5049361;28;46731;-69
2022/01/10 11:07:55;;;;;;;;;19.75;16.50;;;;;6.39;88.57;101902.53;5053295;28;45560;-69
2022/01/10 11:10:22;;;;;;;;;23.25;17.50;;;;;6.45;88.90;101901.63;5055449;28;45474;-69
2022/01/10 11:12:55;;;;;;;;;27.50;20.00;;;;;6.45;88.56;101901.63;5055609;28;45891;-69
2022/01/10 11:15:23;;;;;;;;;20.75;17.25;;;;;6.51;88.18;101905.03;5053071;28;46726;-69
2022/01/10 11:17:48;;;;;;;;;21.00;16.25;;;;;6.52;88.14;101914.63;5055590;28;45589;-70
2022/01/10 11:20:19;;;;;;;;;28.25;21.00;;;;;6.30;88.35;101878.22;5059740;28;45661;-69
2022/01/10 11:22:48;;;;;;;;;29.00;27.25;;;;;6.51;88.73;101912.88;5053941;28;45549;-69
2022/01/10 11:25:21;;;;;;;;;25.75;20.25;;;;;6.53;88.53;101915.50;5053631;28;45720;-69